sensor_id;sensor_type;location;lat;lon;timestamp;P1;durP1;ratioP1;P2;durP2;ratioP2
7957;SDS011;4024;52.172;5.378;2022-12-15T00:00:52;20.45;;;13.07;;
7957;SDS011;4024;52.172;5.378;2022-12-15T00:03:36;23.48;;;13.43;;
7957;SDS011;4024;52.172;5.378;2022-12-15T00:06:20;22.15;;;13.57;;
7957;SDS011;4024;52.172;5.378;2022-12-15T00:09:04;23.13;;;13.23;;
7957;SDS011;4024;52.172;5.378;2022-12-15T00:11:48;19.70;;;12.97;;
7957;SDS011;4024;52.172;5.378;2022-12-15T00:14:33;23.65;;;13.23;;
7957;SDS011;4024;52.172;5.378;2022-12-15T00:17:17;22.63;;;14.23;;
7957;SDS011;4024;52.172;5.378;2022-12-15T00:20:01;21.58;;;12.93;;
7957;SDS011;4024;52.172;5.378;2022-12-15T00:22:46;24.17;;;13.73;;
7957;SDS011;4024;52.172;5.378;2022-12-15T00:25:30;18.80;;;12.68;;
7957;SDS011;4024;52.172;5.378;2022-12-15T00:28:14;21.23;;;13.00;;
7957;SDS011;4024;52.172;5.378;2022-12-15T00:30:58;20.13;;;12.88;;
7957;SDS011;4024;52.172;5.378;2022-12-15T00:33:42;19.77;;;12.85;;
7957;SDS011;4024;52.172;5.378;2022-12-15T00:36:26;21.20;;;13.17;;
7957;SDS011;4024;52.172;5.378;2022-12-15T00:39:11;18.65;;;11.68;;
7957;SDS011;4024;52.172;5.378;2022-12-15T00:41:37;19.35;;;12.05;;
7957;SDS011;4024;52.172;5.378;2022-12-15T00:44:02;17.90;;;11.43;;
7957;SDS011;4024;52.172;5.378;2022-12-15T00:46:28;19.73;;;12.90;;
7957;SDS011;4024;52.172;5.378;2022-12-15T00:49:12;22.80;;;13.30;;
7957;SDS011;4024;52.172;5.378;2022-12-15T00:51:57;21.58;;;12.60;;
7957;SDS011;4024;52.172;5.378;2022-12-15T00:54:42;20.70;;;12.35;;
7957;SDS011;4024;52.172;5.378;2022-12-15T00:57:26;22.30;;;13.00;;
7957;SDS011;4024;52.172;5.378;2022-12-15T01:00:10;17.48;;;11.52;;
7957;SDS011;4024;52.172;5.378;2022-12-15T01:02:55;21.13;;;13.40;;
7957;SDS011;4024;52.172;5.378;2022-12-15T01:05:39;21.13;;;13.20;;
7957;SDS011;4024;52.172;5.378;2022-12-15T01:08:23;19.83;;;12.50;;
7957;SDS011;4024;52.172;5.378;2022-12-15T01:11:07;21.90;;;12.65;;
7957;SDS011;4024;52.172;5.378;2022-12-15T01:13:51;20.35;;;12.73;;
7957;SDS011;4024;52.172;5.378;2022-12-15T01:16:35;20.77;;;12.10;;
7957;SDS011;4024;52.172;5.378;2022-12-15T01:19:19;19.25;;;12.30;;
7957;SDS011;4024;52.172;5.378;2022-12-15T01:22:04;22.95;;;12.60;;
7957;SDS011;4024;52.172;5.378;2022-12-15T01:24:30;20.38;;;12.95;;
7957;SDS011;4024;52.172;5.378;2022-12-15T01:26:56;21.90;;;13.30;;
7957;SDS011;4024;52.172;5.378;2022-12-15T01:29:21;18.10;;;11.60;;
7957;SDS011;4024;52.172;5.378;2022-12-15T01:31:47;19.87;;;12.27;;
7957;SDS011;4024;52.172;5.378;2022-12-15T01:34:13;21.17;;;12.97;;
7957;SDS011;4024;52.172;5.378;2022-12-15T01:36:39;18.77;;;11.73;;
7957;SDS011;4024;52.172;5.378;2022-12-15T01:39:04;18.67;;;11.80;;
7957;SDS011;4024;52.172;5.378;2022-12-15T01:41:30;21.80;;;12.23;;
7957;SDS011;4024;52.172;5.378;2022-12-15T01:44:13;20.67;;;12.33;;
7957;SDS011;4024;52.172;5.378;2022-12-15T01:46:43;21.98;;;13.00;;
7957;SDS011;4024;52.172;5.378;2022-12-15T01:49:17;21.63;;;13.73;;
7957;SDS011;4024;52.172;5.378;2022-12-15T01:51:48;17.58;;;11.68;;
7957;SDS011;4024;52.172;5.378;2022-12-15T01:57:03;20.73;;;12.80;;
7957;SDS011;4024;52.172;5.378;2022-12-15T01:59:33;18.10;;;12.73;;
7957;SDS011;4024;52.172;5.378;2022-12-15T02:02:03;20.00;;;12.15;;
7957;SDS011;4024;52.172;5.378;2022-12-15T02:04:29;20.58;;;13.65;;
7957;SDS011;4024;52.172;5.378;2022-12-15T02:06:55;18.60;;;12.32;;
7957;SDS011;4024;52.172;5.378;2022-12-15T02:09:21;18.50;;;12.97;;
7957;SDS011;4024;52.172;5.378;2022-12-15T02:12:11;19.20;;;12.20;;
7957;SDS011;4024;52.172;5.378;2022-12-15T02:17:36;19.67;;;12.15;;
7957;SDS011;4024;52.172;5.378;2022-12-15T02:20:40;20.58;;;12.57;;
7957;SDS011;4024;52.172;5.378;2022-12-15T02:31:42;21.40;;;12.80;;
7957;SDS011;4024;52.172;5.378;2022-12-15T02:37:08;18.73;;;11.90;;
7957;SDS011;4024;52.172;5.378;2022-12-15T02:39:43;19.27;;;12.50;;
7957;SDS011;4024;52.172;5.378;2022-12-15T02:42:09;18.38;;;11.35;;
7957;SDS011;4024;52.172;5.378;2022-12-15T02:49:56;15.82;;;10.93;;
7957;SDS011;4024;52.172;5.378;2022-12-15T03:01:02;19.95;;;11.77;;
7957;SDS011;4024;52.172;5.378;2022-12-15T03:03:45;17.70;;;12.10;;
7957;SDS011;4024;52.172;5.378;2022-12-15T03:06:12;18.25;;;13.13;;
7957;SDS011;4024;52.172;5.378;2022-12-15T03:08:38;16.27;;;12.15;;
7957;SDS011;4024;52.172;5.378;2022-12-15T03:11:04;20.17;;;12.20;;
7957;SDS011;4024;52.172;5.378;2022-12-15T03:13:30;18.83;;;12.07;;
7957;SDS011;4024;52.172;5.378;2022-12-15T03:15:55;22.27;;;12.93;;
7957;SDS011;4024;52.172;5.378;2022-12-15T03:18:22;19.80;;;12.43;;
7957;SDS011;4024;52.172;5.378;2022-12-15T03:20:48;16.42;;;11.05;;
7957;SDS011;4024;52.172;5.378;2022-12-15T03:23:14;17.47;;;12.20;;
7957;SDS011;4024;52.172;5.378;2022-12-15T03:25:40;21.53;;;11.63;;
7957;SDS011;4024;52.172;5.378;2022-12-15T03:28:05;17.03;;;11.67;;
7957;SDS011;4024;52.172;5.378;2022-12-15T03:30:31;20.67;;;12.67;;
7957;SDS011;4024;52.172;5.378;2022-12-15T03:32:56;19.03;;;12.33;;
7957;SDS011;4024;52.172;5.378;2022-12-15T03:35:22;18.97;;;12.47;;
7957;SDS011;4024;52.172;5.378;2022-12-15T03:37:47;23.50;;;13.17;;
7957;SDS011;4024;52.172;5.378;2022-12-15T03:40:13;19.43;;;12.67;;
7957;SDS011;4024;52.172;5.378;2022-12-15T03:42:39;19.80;;;12.20;;
7957;SDS011;4024;52.172;5.378;2022-12-15T03:45:23;18.52;;;12.52;;
7957;SDS011;4024;52.172;5.378;2022-12-15T03:47:51;18.63;;;11.65;;
7957;SDS011;4024;52.172;5.378;2022-12-15T03:50:18;20.30;;;11.18;;
7957;SDS011;4024;52.172;5.378;2022-12-15T03:52:49;18.23;;;11.38;;
7957;SDS011;4024;52.172;5.378;2022-12-15T03:55:19;18.25;;;12.32;;
7957;SDS011;4024;52.172;5.378;2022-12-15T03:57:45;22.27;;;12.90;;
7957;SDS011;4024;52.172;5.378;2022-12-15T04:00:11;19.40;;;10.80;;
7957;SDS011;4024;52.172;5.378;2022-12-15T04:02:42;17.27;;;11.23;;
7957;SDS011;4024;52.172;5.378;2022-12-15T04:05:07;18.13;;;11.50;;
7957;SDS011;4024;52.172;5.378;2022-12-15T04:07:41;16.65;;;10.80;;
7957;SDS011;4024;52.172;5.378;2022-12-15T04:10:06;18.73;;;11.83;;
7957;SDS011;4024;52.172;5.378;2022-12-15T04:12:32;21.77;;;12.48;;
7957;SDS011;4024;52.172;5.378;2022-12-15T04:14:58;17.70;;;11.37;;
7957;SDS011;4024;52.172;5.378;2022-12-15T04:17:23;19.10;;;12.27;;
7957;SDS011;4024;52.172;5.378;2022-12-15T04:19:49;19.73;;;11.50;;
7957;SDS011;4024;52.172;5.378;2022-12-15T04:22:33;19.08;;;12.25;;
7957;SDS011;4024;52.172;5.378;2022-12-15T04:25:03;18.33;;;11.93;;
7957;SDS011;4024;52.172;5.378;2022-12-15T04:27:48;22.73;;;12.60;;
7957;SDS011;4024;52.172;5.378;2022-12-15T04:30:32;17.88;;;12.30;;
7957;SDS011;4024;52.172;5.378;2022-12-15T04:33:17;20.40;;;13.30;;
7957;SDS011;4024;52.172;5.378;2022-12-15T04:36:02;22.42;;;14.70;;
7957;SDS011;4024;52.172;5.378;2022-12-15T04:38:47;19.55;;;13.15;;
7957;SDS011;4024;52.172;5.378;2022-12-15T04:41:31;20.75;;;12.32;;
7957;SDS011;4024;52.172;5.378;2022-12-15T04:44:15;19.08;;;12.77;;
7957;SDS011;4024;52.172;5.378;2022-12-15T04:47:00;19.17;;;12.70;;
7957;SDS011;4024;52.172;5.378;2022-12-15T04:49:45;19.23;;;12.82;;
7957;SDS011;4024;52.172;5.378;2022-12-15T04:52:29;21.42;;;13.35;;
7957;SDS011;4024;52.172;5.378;2022-12-15T04:55:13;20.10;;;12.73;;
7957;SDS011;4024;52.172;5.378;2022-12-15T04:57:57;19.03;;;12.57;;
7957;SDS011;4024;52.172;5.378;2022-12-15T05:00:47;20.77;;;13.25;;
7957;SDS011;4024;52.172;5.378;2022-12-15T05:03:32;20.27;;;13.85;;
7957;SDS011;4024;52.172;5.378;2022-12-15T05:06:16;20.55;;;14.20;;
7957;SDS011;4024;52.172;5.378;2022-12-15T05:09:00;19.60;;;13.02;;
7957;SDS011;4024;52.172;5.378;2022-12-15T05:11:44;18.20;;;12.38;;
7957;SDS011;4024;52.172;5.378;2022-12-15T05:14:28;20.48;;;13.43;;
7957;SDS011;4024;52.172;5.378;2022-12-15T05:17:12;22.50;;;13.20;;
7957;SDS011;4024;52.172;5.378;2022-12-15T05:19:56;20.88;;;13.02;;
7957;SDS011;4024;52.172;5.378;2022-12-15T05:22:40;18.30;;;12.57;;
7957;SDS011;4024;52.172;5.378;2022-12-15T05:25:24;17.92;;;11.88;;
7957;SDS011;4024;52.172;5.378;2022-12-15T05:28:08;20.53;;;12.87;;
7957;SDS011;4024;52.172;5.378;2022-12-15T05:30:52;18.25;;;12.20;;
7957;SDS011;4024;52.172;5.378;2022-12-15T05:33:36;22.63;;;13.50;;
7957;SDS011;4024;52.172;5.378;2022-12-15T05:36:02;18.37;;;12.50;;
7957;SDS011;4024;52.172;5.378;2022-12-15T05:38:28;19.47;;;12.17;;
7957;SDS011;4024;52.172;5.378;2022-12-15T05:40:57;20.53;;;12.70;;
7957;SDS011;4024;52.172;5.378;2022-12-15T05:43:23;19.73;;;12.35;;
7957;SDS011;4024;52.172;5.378;2022-12-15T05:45:49;18.77;;;13.07;;
7957;SDS011;4024;52.172;5.378;2022-12-15T05:48:14;19.10;;;13.30;;
7957;SDS011;4024;52.172;5.378;2022-12-15T05:50:40;23.07;;;13.03;;
7957;SDS011;4024;52.172;5.378;2022-12-15T05:53:05;16.17;;;11.13;;
7957;SDS011;4024;52.172;5.378;2022-12-15T05:55:31;17.30;;;12.07;;
7957;SDS011;4024;52.172;5.378;2022-12-15T05:57:56;17.53;;;11.00;;
7957;SDS011;4024;52.172;5.378;2022-12-15T06:00:22;24.63;;;12.93;;
7957;SDS011;4024;52.172;5.378;2022-12-15T06:02:48;16.93;;;11.33;;
7957;SDS011;4024;52.172;5.378;2022-12-15T06:05:13;19.53;;;12.90;;
7957;SDS011;4024;52.172;5.378;2022-12-15T06:07:39;17.97;;;12.23;;
7957;SDS011;4024;52.172;5.378;2022-12-15T06:10:05;21.23;;;13.43;;
7957;SDS011;4024;52.172;5.378;2022-12-15T06:12:31;21.60;;;12.67;;
7957;SDS011;4024;52.172;5.378;2022-12-15T06:14:56;19.33;;;12.83;;
7957;SDS011;4024;52.172;5.378;2022-12-15T06:17:22;20.52;;;12.82;;
7957;SDS011;4024;52.172;5.378;2022-12-15T06:19:48;20.20;;;12.63;;
7957;SDS011;4024;52.172;5.378;2022-12-15T06:22:14;20.63;;;13.03;;
7957;SDS011;4024;52.172;5.378;2022-12-15T06:24:40;24.37;;;13.20;;
7957;SDS011;4024;52.172;5.378;2022-12-15T06:27:05;18.93;;;12.03;;
7957;SDS011;4024;52.172;5.378;2022-12-15T06:29:31;19.37;;;12.30;;
7957;SDS011;4024;52.172;5.378;2022-12-15T06:31:56;19.53;;;13.67;;
7957;SDS011;4024;52.172;5.378;2022-12-15T06:34:22;20.67;;;13.20;;
7957;SDS011;4024;52.172;5.378;2022-12-15T06:36:48;19.93;;;13.60;;
7957;SDS011;4024;52.172;5.378;2022-12-15T06:39:14;19.27;;;13.18;;
7957;SDS011;4024;52.172;5.378;2022-12-15T06:41:40;21.02;;;13.45;;
7957;SDS011;4024;52.172;5.378;2022-12-15T06:44:09;23.63;;;14.15;;
7957;SDS011;4024;52.172;5.378;2022-12-15T06:46:40;23.60;;;13.30;;
7957;SDS011;4024;52.172;5.378;2022-12-15T06:49:06;22.80;;;14.25;;
7957;SDS011;4024;52.172;5.378;2022-12-15T06:51:33;20.63;;;12.90;;
7957;SDS011;4024;52.172;5.378;2022-12-15T06:53:58;19.20;;;13.70;;
7957;SDS011;4024;52.172;5.378;2022-12-15T06:56:25;18.73;;;12.73;;
7957;SDS011;4024;52.172;5.378;2022-12-15T06:58:55;21.02;;;12.95;;
7957;SDS011;4024;52.172;5.378;2022-12-15T07:01:25;20.02;;;12.35;;
7957;SDS011;4024;52.172;5.378;2022-12-15T07:03:51;18.50;;;13.57;;
7957;SDS011;4024;52.172;5.378;2022-12-15T07:06:18;19.75;;;13.57;;
7957;SDS011;4024;52.172;5.378;2022-12-15T07:08:46;22.40;;;13.23;;
7957;SDS011;4024;52.172;5.378;2022-12-15T07:11:16;25.13;;;13.48;;
7957;SDS011;4024;52.172;5.378;2022-12-15T07:13:42;20.23;;;12.87;;
7957;SDS011;4024;52.172;5.378;2022-12-15T07:16:08;18.70;;;12.67;;
7957;SDS011;4024;52.172;5.378;2022-12-15T07:18:35;19.98;;;12.90;;
7957;SDS011;4024;52.172;5.378;2022-12-15T07:21:02;24.90;;;13.53;;
7957;SDS011;4024;52.172;5.378;2022-12-15T07:23:29;20.13;;;12.53;;
7957;SDS011;4024;52.172;5.378;2022-12-15T07:25:55;22.00;;;12.27;;
7957;SDS011;4024;52.172;5.378;2022-12-15T07:28:21;21.27;;;13.20;;
7957;SDS011;4024;52.172;5.378;2022-12-15T07:30:46;19.20;;;12.67;;
7957;SDS011;4024;52.172;5.378;2022-12-15T07:33:12;18.40;;;12.87;;
7957;SDS011;4024;52.172;5.378;2022-12-15T07:35:39;18.37;;;12.90;;
7957;SDS011;4024;52.172;5.378;2022-12-15T07:38:05;19.47;;;12.97;;
7957;SDS011;4024;52.172;5.378;2022-12-15T07:40:32;20.52;;;12.95;;
7957;SDS011;4024;52.172;5.378;2022-12-15T07:42:58;18.00;;;11.73;;
7957;SDS011;4024;52.172;5.378;2022-12-15T07:45:24;18.80;;;12.73;;
7957;SDS011;4024;52.172;5.378;2022-12-15T07:47:50;21.30;;;12.67;;
7957;SDS011;4024;52.172;5.378;2022-12-15T07:50:16;22.07;;;12.53;;
7957;SDS011;4024;52.172;5.378;2022-12-15T07:52:43;18.80;;;13.47;;
7957;SDS011;4024;52.172;5.378;2022-12-15T07:55:09;18.20;;;13.03;;
7957;SDS011;4024;52.172;5.378;2022-12-15T07:57:34;26.43;;;14.03;;
7957;SDS011;4024;52.172;5.378;2022-12-15T08:00:00;20.80;;;13.07;;
7957;SDS011;4024;52.172;5.378;2022-12-15T08:02:26;19.50;;;12.77;;
7957;SDS011;4024;52.172;5.378;2022-12-15T08:04:51;21.10;;;13.77;;
7957;SDS011;4024;52.172;5.378;2022-12-15T08:07:17;19.30;;;12.27;;
7957;SDS011;4024;52.172;5.378;2022-12-15T08:09:43;21.77;;;13.10;;
7957;SDS011;4024;52.172;5.378;2022-12-15T08:12:11;21.33;;;13.47;;
7957;SDS011;4024;52.172;5.378;2022-12-15T08:14:37;19.33;;;13.40;;
7957;SDS011;4024;52.172;5.378;2022-12-15T08:17:02;19.40;;;12.87;;
7957;SDS011;4024;52.172;5.378;2022-12-15T08:19:28;21.23;;;13.53;;
7957;SDS011;4024;52.172;5.378;2022-12-15T08:21:54;22.30;;;14.77;;
7957;SDS011;4024;52.172;5.378;2022-12-15T08:24:20;20.00;;;13.70;;
7957;SDS011;4024;52.172;5.378;2022-12-15T08:26:45;24.67;;;14.40;;
7957;SDS011;4024;52.172;5.378;2022-12-15T08:29:12;18.97;;;13.90;;
7957;SDS011;4024;52.172;5.378;2022-12-15T08:31:38;23.03;;;13.73;;
7957;SDS011;4024;52.172;5.378;2022-12-15T08:34:04;22.40;;;13.63;;
7957;SDS011;4024;52.172;5.378;2022-12-15T08:36:30;17.70;;;12.77;;
7957;SDS011;4024;52.172;5.378;2022-12-15T08:38:57;22.20;;;14.53;;
7957;SDS011;4024;52.172;5.378;2022-12-15T08:41:25;24.90;;;16.03;;
7957;SDS011;4024;52.172;5.378;2022-12-15T08:43:52;21.80;;;14.73;;
7957;SDS011;4024;52.172;5.378;2022-12-15T08:46:20;19.92;;;14.48;;
7957;SDS011;4024;52.172;5.378;2022-12-15T08:48:48;19.80;;;13.03;;
7957;SDS011;4024;52.172;5.378;2022-12-15T08:51:14;22.13;;;14.27;;
7957;SDS011;4024;52.172;5.378;2022-12-15T08:53:41;21.17;;;14.23;;
7957;SDS011;4024;52.172;5.378;2022-12-15T08:56:08;22.50;;;13.57;;
7957;SDS011;4024;52.172;5.378;2022-12-15T08:58:34;22.73;;;14.57;;
7957;SDS011;4024;52.172;5.378;2022-12-15T09:01:04;22.77;;;13.93;;
7957;SDS011;4024;52.172;5.378;2022-12-15T09:03:35;20.00;;;13.30;;
7957;SDS011;4024;52.172;5.378;2022-12-15T09:06:02;27.27;;;14.73;;
7957;SDS011;4024;52.172;5.378;2022-12-15T09:08:29;21.97;;;14.20;;
7957;SDS011;4024;52.172;5.378;2022-12-15T09:10:58;24.90;;;15.73;;
7957;SDS011;4024;52.172;5.378;2022-12-15T09:13:25;20.43;;;14.63;;
7957;SDS011;4024;52.172;5.378;2022-12-15T09:16:04;22.27;;;14.70;;
7957;SDS011;4024;52.172;5.378;2022-12-15T09:18:32;27.80;;;15.83;;
7957;SDS011;4024;52.172;5.378;2022-12-15T09:21:02;22.13;;;15.77;;
7957;SDS011;4024;52.172;5.378;2022-12-15T09:23:30;24.17;;;14.53;;
7957;SDS011;4024;52.172;5.378;2022-12-15T09:26:00;24.70;;;14.70;;
7957;SDS011;4024;52.172;5.378;2022-12-15T09:28:27;23.77;;;14.50;;
7957;SDS011;4024;52.172;5.378;2022-12-15T09:31:00;21.57;;;14.50;;
7957;SDS011;4024;52.172;5.378;2022-12-15T09:33:27;23.30;;;14.53;;
7957;SDS011;4024;52.172;5.378;2022-12-15T09:35:52;20.03;;;13.27;;
7957;SDS011;4024;52.172;5.378;2022-12-15T09:38:18;24.93;;;14.87;;
7957;SDS011;4024;52.172;5.378;2022-12-15T09:40:44;25.33;;;14.10;;
7957;SDS011;4024;52.172;5.378;2022-12-15T09:43:10;22.53;;;15.17;;
7957;SDS011;4024;52.172;5.378;2022-12-15T09:45:43;23.30;;;14.03;;
7957;SDS011;4024;52.172;5.378;2022-12-15T09:48:20;24.10;;;13.43;;
7957;SDS011;4024;52.172;5.378;2022-12-15T09:50:49;25.33;;;14.03;;
7957;SDS011;4024;52.172;5.378;2022-12-15T09:53:18;23.37;;;15.30;;
7957;SDS011;4024;52.172;5.378;2022-12-15T09:55:47;19.10;;;13.40;;
7957;SDS011;4024;52.172;5.378;2022-12-15T10:01:26;23.07;;;14.00;;
7957;SDS011;4024;52.172;5.378;2022-12-15T10:04:05;27.60;;;16.93;;
7957;SDS011;4024;52.172;5.378;2022-12-15T10:06:43;24.50;;;16.30;;
7957;SDS011;4024;52.172;5.378;2022-12-15T10:09:25;25.17;;;16.33;;
7957;SDS011;4024;52.172;5.378;2022-12-15T10:11:55;24.00;;;15.57;;
7957;SDS011;4024;52.172;5.378;2022-12-15T10:14:33;25.83;;;15.57;;
7957;SDS011;4024;52.172;5.378;2022-12-15T10:17:24;26.70;;;16.27;;
7957;SDS011;4024;52.172;5.378;2022-12-15T10:20:06;29.80;;;16.37;;
7957;SDS011;4024;52.172;5.378;2022-12-15T10:22:45;31.37;;;17.53;;
7957;SDS011;4024;52.172;5.378;2022-12-15T10:25:27;24.00;;;16.77;;
7957;SDS011;4024;52.172;5.378;2022-12-15T10:33:27;20.90;;;16.27;;
7957;SDS011;4024;52.172;5.378;2022-12-15T10:35:58;23.20;;;16.77;;
7957;SDS011;4024;52.172;5.378;2022-12-15T10:38:26;25.30;;;17.47;;
7957;SDS011;4024;52.172;5.378;2022-12-15T10:41:06;26.67;;;17.07;;
7957;SDS011;4024;52.172;5.378;2022-12-15T10:43:38;31.00;;;17.37;;
7957;SDS011;4024;52.172;5.378;2022-12-15T10:48:33;31.80;;;18.57;;
7957;SDS011;4024;52.172;5.378;2022-12-15T10:51:34;32.07;;;19.10;;
7957;SDS011;4024;52.172;5.378;2022-12-15T10:56:28;27.80;;;16.93;;
7957;SDS011;4024;52.172;5.378;2022-12-15T10:58:57;24.10;;;17.50;;
7957;SDS011;4024;52.172;5.378;2022-12-15T11:01:28;22.07;;;15.90;;
7957;SDS011;4024;52.172;5.378;2022-12-15T11:03:56;25.77;;;16.17;;
7957;SDS011;4024;52.172;5.378;2022-12-15T11:08:53;26.87;;;16.23;;
7957;SDS011;4024;52.172;5.378;2022-12-15T11:14:19;21.40;;;15.93;;
7957;SDS011;4024;52.172;5.378;2022-12-15T11:16:57;24.77;;;16.67;;
7957;SDS011;4024;52.172;5.378;2022-12-15T11:19:26;27.80;;;16.10;;
7957;SDS011;4024;52.172;5.378;2022-12-15T11:22:00;27.37;;;16.77;;
7957;SDS011;4024;52.172;5.378;2022-12-15T11:24:51;23.33;;;16.30;;
7957;SDS011;4024;52.172;5.378;2022-12-15T11:27:29;23.63;;;15.53;;
7957;SDS011;4024;52.172;5.378;2022-12-15T11:32:40;24.17;;;16.27;;
7957;SDS011;4024;52.172;5.378;2022-12-15T11:35:12;28.83;;;17.47;;
7957;SDS011;4024;52.172;5.378;2022-12-15T11:37:41;24.03;;;15.87;;
7957;SDS011;4024;52.172;5.378;2022-12-15T11:53:25;23.03;;;16.80;;
7957;SDS011;4024;52.172;5.378;2022-12-15T12:09:27;23.37;;;17.10;;
7957;SDS011;4024;52.172;5.378;2022-12-15T12:17:15;24.83;;;18.10;;
7957;SDS011;4024;52.172;5.378;2022-12-15T12:19:53;26.27;;;17.43;;
7957;SDS011;4024;52.172;5.378;2022-12-15T12:22:29;29.30;;;18.03;;
7957;SDS011;4024;52.172;5.378;2022-12-15T12:27:58;25.40;;;17.90;;
7957;SDS011;4024;52.172;5.378;2022-12-15T12:30:38;24.63;;;17.83;;
7957;SDS011;4024;52.172;5.378;2022-12-15T12:36:09;30.43;;;17.67;;
7957;SDS011;4024;52.172;5.378;2022-12-15T12:38:40;23.63;;;17.97;;
7957;SDS011;4024;52.172;5.378;2022-12-15T12:43:54;23.33;;;16.60;;
7957;SDS011;4024;52.172;5.378;2022-12-15T12:49:20;26.77;;;17.93;;
7957;SDS011;4024;52.172;5.378;2022-12-15T12:51:55;30.30;;;17.93;;
7957;SDS011;4024;52.172;5.378;2022-12-15T12:57:01;24.53;;;18.63;;
7957;SDS011;4024;52.172;5.378;2022-12-15T13:07:35;28.93;;;19.50;;
7957;SDS011;4024;52.172;5.378;2022-12-15T13:12:52;30.03;;;20.70;;
7957;SDS011;4024;52.172;5.378;2022-12-15T13:15:43;27.63;;;20.73;;
7957;SDS011;4024;52.172;5.378;2022-12-15T13:20:41;31.63;;;20.90;;
7957;SDS011;4024;52.172;5.378;2022-12-15T13:28:22;32.23;;;21.37;;
7957;SDS011;4024;52.172;5.378;2022-12-15T13:46:52;28.97;;;20.20;;
7957;SDS011;4024;52.172;5.378;2022-12-15T13:49:23;28.93;;;21.77;;
7957;SDS011;4024;52.172;5.378;2022-12-15T13:54:59;32.90;;;20.23;;
7957;SDS011;4024;52.172;5.378;2022-12-15T13:57:28;29.50;;;21.27;;
7957;SDS011;4024;52.172;5.378;2022-12-15T14:00:03;28.03;;;19.97;;
7957;SDS011;4024;52.172;5.378;2022-12-15T14:02:32;32.50;;;21.57;;
7957;SDS011;4024;52.172;5.378;2022-12-15T14:07:29;29.23;;;21.20;;
7957;SDS011;4024;52.172;5.378;2022-12-15T14:09:55;30.57;;;19.40;;
7957;SDS011;4024;52.172;5.378;2022-12-15T14:12:21;28.87;;;21.00;;
7957;SDS011;4024;52.172;5.378;2022-12-15T14:14:47;25.33;;;20.07;;
7957;SDS011;4024;52.172;5.378;2022-12-15T14:17:14;33.23;;;23.43;;
7957;SDS011;4024;52.172;5.378;2022-12-15T14:19:43;32.27;;;21.77;;
7957;SDS011;4024;52.172;5.378;2022-12-15T14:22:26;30.53;;;21.57;;
7957;SDS011;4024;52.172;5.378;2022-12-15T14:25:13;31.70;;;22.97;;
7957;SDS011;4024;52.172;5.378;2022-12-15T14:27:40;34.63;;;24.97;;
7957;SDS011;4024;52.172;5.378;2022-12-15T14:32:47;29.73;;;23.00;;
7957;SDS011;4024;52.172;5.378;2022-12-15T14:35:23;33.30;;;24.07;;
7957;SDS011;4024;52.172;5.378;2022-12-15T14:37:55;31.70;;;21.77;;
7957;SDS011;4024;52.172;5.378;2022-12-15T14:40:23;31.20;;;24.07;;
7957;SDS011;4024;52.172;5.378;2022-12-15T14:42:51;32.80;;;24.27;;
7957;SDS011;4024;52.172;5.378;2022-12-15T14:45:19;35.67;;;23.43;;
7957;SDS011;4024;52.172;5.378;2022-12-15T14:47:55;27.40;;;22.10;;
7957;SDS011;4024;52.172;5.378;2022-12-15T14:50:24;31.77;;;23.97;;
7957;SDS011;4024;52.172;5.378;2022-12-15T14:53:00;34.53;;;23.00;;
7957;SDS011;4024;52.172;5.378;2022-12-15T14:55:36;30.33;;;23.93;;
7957;SDS011;4024;52.172;5.378;2022-12-15T15:00:56;31.57;;;22.90;;
7957;SDS011;4024;52.172;5.378;2022-12-15T15:03:38;36.30;;;23.90;;
7957;SDS011;4024;52.172;5.378;2022-12-15T15:08:50;34.87;;;23.87;;
7957;SDS011;4024;52.172;5.378;2022-12-15T15:14:01;38.80;;;25.10;;
7957;SDS011;4024;52.172;5.378;2022-12-15T15:16:33;37.70;;;25.50;;
7957;SDS011;4024;52.172;5.378;2022-12-15T15:18:59;39.27;;;25.73;;
7957;SDS011;4024;52.172;5.378;2022-12-15T15:21:30;33.33;;;24.33;;
7957;SDS011;4024;52.172;5.378;2022-12-15T15:24:02;37.23;;;26.53;;
7957;SDS011;4024;52.172;5.378;2022-12-15T15:26:44;33.03;;;24.17;;
7957;SDS011;4024;52.172;5.378;2022-12-15T15:32:19;34.00;;;24.37;;
7957;SDS011;4024;52.172;5.378;2022-12-15T15:34:46;37.17;;;26.20;;
7957;SDS011;4024;52.172;5.378;2022-12-15T15:39:41;34.00;;;25.47;;
7957;SDS011;4024;52.172;5.378;2022-12-15T15:42:10;35.03;;;25.17;;
7957;SDS011;4024;52.172;5.378;2022-12-15T15:44:37;33.70;;;25.27;;
7957;SDS011;4024;52.172;5.378;2022-12-15T15:47:04;35.97;;;25.53;;
7957;SDS011;4024;52.172;5.378;2022-12-15T15:49:30;34.63;;;25.87;;
7957;SDS011;4024;52.172;5.378;2022-12-15T15:51:56;37.50;;;26.37;;
7957;SDS011;4024;52.172;5.378;2022-12-15T15:54:22;34.73;;;25.67;;
7957;SDS011;4024;52.172;5.378;2022-12-15T15:56:51;34.40;;;25.87;;
7957;SDS011;4024;52.172;5.378;2022-12-15T15:59:17;35.67;;;25.53;;
7957;SDS011;4024;52.172;5.378;2022-12-15T16:01:46;38.20;;;27.20;;
7957;SDS011;4024;52.172;5.378;2022-12-15T16:04:19;45.50;;;27.73;;
7957;SDS011;4024;52.172;5.378;2022-12-15T16:06:45;34.23;;;26.00;;
7957;SDS011;4024;52.172;5.378;2022-12-15T16:09:13;39.40;;;29.20;;
7957;SDS011;4024;52.172;5.378;2022-12-15T16:11:39;40.77;;;27.97;;
7957;SDS011;4024;52.172;5.378;2022-12-15T16:14:09;42.03;;;28.87;;
7957;SDS011;4024;52.172;5.378;2022-12-15T16:16:37;42.93;;;29.63;;
7957;SDS011;4024;52.172;5.378;2022-12-15T16:19:02;40.70;;;28.80;;
7957;SDS011;4024;52.172;5.378;2022-12-15T16:21:28;38.10;;;29.07;;
7957;SDS011;4024;52.172;5.378;2022-12-15T16:23:54;42.17;;;28.93;;
7957;SDS011;4024;52.172;5.378;2022-12-15T16:26:25;42.77;;;30.20;;
7957;SDS011;4024;52.172;5.378;2022-12-15T16:28:53;42.87;;;31.30;;
7957;SDS011;4024;52.172;5.378;2022-12-15T16:33:54;39.60;;;27.83;;
7957;SDS011;4024;52.172;5.378;2022-12-15T16:36:20;40.57;;;28.33;;
7957;SDS011;4024;52.172;5.378;2022-12-15T16:38:46;39.40;;;30.03;;
7957;SDS011;4024;52.172;5.378;2022-12-15T16:41:13;42.27;;;30.07;;
7957;SDS011;4024;52.172;5.378;2022-12-15T16:43:41;39.23;;;29.20;;
7957;SDS011;4024;52.172;5.378;2022-12-15T16:46:10;40.73;;;30.00;;
7957;SDS011;4024;52.172;5.378;2022-12-15T16:48:36;37.73;;;28.07;;
7957;SDS011;4024;52.172;5.378;2022-12-15T16:51:02;37.93;;;28.90;;
7957;SDS011;4024;52.172;5.378;2022-12-15T16:53:32;45.17;;;32.23;;
7957;SDS011;4024;52.172;5.378;2022-12-15T16:56:06;41.63;;;29.73;;
7957;SDS011;4024;52.172;5.378;2022-12-15T16:58:36;40.67;;;30.53;;
7957;SDS011;4024;52.172;5.378;2022-12-15T17:01:02;47.97;;;32.33;;
7957;SDS011;4024;52.172;5.378;2022-12-15T17:03:28;44.20;;;31.87;;
7957;SDS011;4024;52.172;5.378;2022-12-15T17:05:54;42.90;;;31.03;;
7957;SDS011;4024;52.172;5.378;2022-12-15T17:08:26;44.50;;;32.70;;
7957;SDS011;4024;52.172;5.378;2022-12-15T17:10:58;42.40;;;30.07;;
7957;SDS011;4024;52.172;5.378;2022-12-15T17:15:55;47.53;;;32.00;;
7957;SDS011;4024;52.172;5.378;2022-12-15T17:18:22;43.20;;;31.47;;
7957;SDS011;4024;52.172;5.378;2022-12-15T17:20:48;42.87;;;29.70;;
7957;SDS011;4024;52.172;5.378;2022-12-15T17:23:18;44.20;;;31.90;;
7957;SDS011;4024;52.172;5.378;2022-12-15T17:25:46;46.33;;;31.43;;
7957;SDS011;4024;52.172;5.378;2022-12-15T17:28:20;41.53;;;30.27;;
7957;SDS011;4024;52.172;5.378;2022-12-15T17:30:49;40.80;;;29.03;;
7957;SDS011;4024;52.172;5.378;2022-12-15T17:33:33;39.80;;;29.50;;
7957;SDS011;4024;52.172;5.378;2022-12-15T17:36:00;42.77;;;30.33;;
7957;SDS011;4024;52.172;5.378;2022-12-15T17:38:35;43.40;;;29.00;;
7957;SDS011;4024;52.172;5.378;2022-12-15T17:41:01;41.40;;;30.13;;
7957;SDS011;4024;52.172;5.378;2022-12-15T17:43:26;47.27;;;30.73;;
7957;SDS011;4024;52.172;5.378;2022-12-15T17:45:52;45.57;;;30.77;;
7957;SDS011;4024;52.172;5.378;2022-12-15T17:48:21;44.57;;;30.03;;
7957;SDS011;4024;52.172;5.378;2022-12-15T17:50:47;46.90;;;30.20;;
7957;SDS011;4024;52.172;5.378;2022-12-15T17:53:16;40.20;;;28.90;;